createdAt,value
2022-07-25T00:01:45.822Z,7.72
2022-07-25T00:04:14.406Z,7.22
2022-07-25T00:06:42.739Z,7.65
2022-07-25T00:09:09.811Z,7.65
2022-07-25T00:11:36.520Z,8.05
2022-07-25T00:14:04.403Z,7.80
2022-07-25T00:16:31.658Z,7.95
2022-07-25T00:18:58.365Z,7.38
2022-07-25T00:21:24.984Z,7.60
2022-07-25T00:23:51.576Z,7.28
2022-07-25T00:26:18.254Z,7.38
2022-07-25T00:28:44.932Z,7.80
2022-07-25T00:31:11.521Z,7.65
2022-07-25T00:33:40.151Z,7.90
2022-07-25T00:36:08.557Z,7.72
2022-07-25T00:38:35.246Z,8.02
2022-07-25T00:41:03.772Z,7.45
2022-07-25T00:43:30.423Z,8.35
2022-07-25T00:45:58.880Z,8.60
2022-07-25T00:48:27.470Z,8.60
2022-07-25T00:50:54.512Z,8.15
2022-07-25T00:53:21.931Z,8.18
2022-07-25T00:55:48.619Z,8.13
2022-07-25T00:58:15.185Z,8.35
2022-07-25T01:00:41.971Z,8.60
2022-07-25T01:03:08.667Z,8.35
2022-07-25T01:05:35.309Z,8.45
2022-07-25T01:08:02.891Z,8.30
2022-07-25T01:10:32.298Z,8.10
2022-07-25T01:12:59.043Z,8.27
2022-07-25T01:15:25.910Z,8.52
2022-07-25T01:17:52.845Z,7.90
2022-07-25T01:20:20.774Z,8.30
2022-07-25T01:22:49.113Z,7.90
2022-07-25T01:25:16.645Z,9.13
2022-07-25T01:27:44.085Z,8.65
2022-07-25T01:30:15.350Z,8.65
2022-07-25T01:32:43.330Z,8.45
2022-07-25T01:35:10.685Z,9.18
2022-07-25T01:37:37.504Z,8.38
2022-07-25T01:40:05.610Z,8.45
2022-07-25T01:42:32.585Z,8.35
2022-07-25T01:44:59.419Z,8.57
2022-07-25T01:47:26.214Z,8.38
2022-07-25T01:49:52.866Z,8.48
2022-07-25T01:52:19.457Z,8.88
2022-07-25T01:54:46.026Z,9.07
2022-07-25T01:57:15.180Z,9.02
2022-07-25T01:59:43.551Z,8.93
2022-07-25T02:02:10.825Z,9.23
2022-07-25T02:04:37.645Z,9.40
2022-07-25T02:07:06.154Z,8.77
2022-07-25T02:09:33.071Z,9.30
2022-07-25T02:11:59.692Z,8.90
2022-07-25T02:14:26.294Z,9.02
2022-07-25T02:16:52.953Z,9.57
2022-07-25T02:19:19.545Z,9.05
2022-07-25T02:21:46.145Z,9.35
2022-07-25T02:24:12.759Z,9.80
2022-07-25T02:26:39.278Z,9.73
2022-07-25T02:29:05.832Z,9.20
2022-07-25T02:31:32.420Z,8.88
2022-07-25T02:33:59.075Z,9.30
2022-07-25T02:36:25.607Z,9.38
2022-07-25T02:38:52.137Z,9.55
2022-07-25T02:41:18.695Z,9.60
2022-07-25T02:43:45.273Z,9.38
2022-07-25T02:46:11.962Z,10.00
2022-07-25T02:48:38.660Z,9.20
2022-07-25T02:51:05.540Z,10.02
2022-07-25T02:53:54.769Z,8.73
2022-07-25T02:56:18.718Z,8.93
2022-07-25T02:58:47.996Z,9.00
2022-07-25T03:01:14.769Z,9.38
2022-07-25T03:03:41.632Z,8.93
2022-07-25T03:06:08.394Z,9.20
2022-07-25T03:08:35.041Z,8.88
2022-07-25T03:11:01.689Z,8.90
2022-07-25T03:13:28.412Z,9.20
2022-07-25T03:15:55.927Z,8.10
2022-07-25T03:18:22.558Z,8.73
2022-07-25T03:20:49.207Z,8.80
2022-07-25T03:23:15.741Z,9.13
2022-07-25T03:25:42.288Z,8.45
2022-07-25T03:28:08.893Z,8.85
2022-07-25T03:30:35.661Z,9.18
2022-07-25T03:33:02.305Z,9.02
2022-07-25T03:35:28.981Z,9.15
2022-07-25T03:37:55.640Z,8.88
2022-07-25T03:40:22.717Z,8.77
2022-07-25T03:42:49.302Z,9.25
2022-07-25T03:45:16.844Z,8.82
2022-07-25T03:47:43.526Z,9.30
2022-07-25T03:50:10.785Z,8.52
2022-07-25T03:52:38.494Z,8.95
2022-07-25T03:55:09.861Z,8.85
2022-07-25T03:57:36.877Z,10.23
2022-07-25T04:00:05.672Z,8.82
2022-07-25T04:02:32.530Z,9.73
2022-07-25T04:04:59.124Z,9.20
2022-07-25T04:07:25.823Z,9.02
2022-07-25T04:09:52.379Z,8.80
2022-07-25T04:12:19.053Z,9.00
2022-07-25T04:14:45.697Z,9.25
2022-07-25T04:17:12.503Z,9.05
2022-07-25T04:19:39.530Z,9.70
2022-07-25T04:22:06.330Z,9.63
2022-07-25T04:24:32.990Z,9.10
2022-07-25T04:26:59.571Z,9.68
2022-07-25T04:29:26.193Z,9.60
2022-07-25T04:31:52.809Z,9.57
2022-07-25T04:34:19.537Z,10.30
2022-07-25T04:36:46.130Z,10.02
2022-07-25T04:39:12.695Z,9.15
2022-07-25T04:41:39.284Z,10.02
2022-07-25T04:44:07.689Z,9.88
2022-07-25T04:46:34.772Z,9.77
2022-07-25T04:49:01.548Z,9.35
2022-07-25T04:51:28.298Z,10.32
2022-07-25T04:53:54.845Z,9.88
2022-07-25T04:56:21.438Z,9.73
2022-07-25T04:58:48.073Z,9.95
2022-07-25T05:01:14.995Z,9.90
2022-07-25T05:03:41.832Z,9.77
2022-07-25T05:06:17.438Z,9.82
2022-07-25T05:08:44.172Z,10.15
2022-07-25T05:11:10.778Z,9.85
2022-07-25T05:13:37.416Z,8.98
2022-07-25T05:16:04.319Z,9.70
2022-07-25T05:18:31.066Z,9.73
2022-07-25T05:20:57.677Z,9.57
2022-07-25T05:23:24.243Z,9.40
2022-07-25T05:25:51.164Z,10.50
2022-07-25T05:28:17.881Z,10.18
2022-07-25T05:30:44.543Z,9.98
2022-07-25T05:33:11.087Z,10.20
2022-07-25T05:35:37.791Z,9.00
2022-07-25T05:38:04.758Z,9.60
2022-07-25T05:40:31.325Z,9.55
2022-07-25T05:43:02.751Z,10.07
2022-07-25T05:45:30.204Z,10.35
2022-07-25T05:47:56.759Z,10.70
2022-07-25T05:50:23.483Z,10.40
2022-07-25T05:52:50.192Z,10.15
2022-07-25T05:55:17.643Z,10.48
2022-07-25T05:57:44.563Z,10.05
2022-07-25T06:00:12.040Z,10.98
2022-07-25T06:02:38.856Z,10.95
2022-07-25T06:05:05.700Z,10.80
2022-07-25T06:07:32.265Z,9.73
2022-07-25T06:09:58.882Z,10.60
2022-07-25T06:12:25.598Z,10.18
2022-07-25T06:14:52.403Z,10.85
2022-07-25T06:17:19.084Z,10.45
2022-07-25T06:19:46.083Z,10.52
2022-07-25T06:22:14.545Z,11.05
2022-07-25T06:24:41.512Z,9.68
2022-07-25T06:27:08.681Z,10.27
2022-07-25T06:29:35.439Z,10.57
2022-07-25T06:32:02.132Z,10.18
2022-07-25T06:34:29.079Z,10.25
2022-07-25T06:36:57.415Z,10.43
2022-07-25T06:39:25.167Z,10.40
2022-07-25T06:41:52.064Z,9.68
2022-07-25T06:44:18.609Z,10.15
2022-07-25T06:46:46.302Z,9.38
2022-07-25T06:49:12.945Z,11.00
2022-07-25T06:51:39.578Z,9.90
2022-07-25T06:54:07.479Z,9.27
2022-07-25T06:56:34.733Z,10.60
2022-07-25T06:59:01.439Z,11.25
2022-07-25T07:01:28.193Z,10.75
2022-07-25T07:03:55.032Z,9.45
2022-07-25T07:06:21.701Z,9.75
2022-07-25T07:08:48.363Z,8.57
2022-07-25T07:11:16.689Z,9.93
2022-07-25T07:13:43.327Z,9.82
2022-07-25T07:16:10.235Z,9.48
2022-07-25T07:18:37.393Z,9.48
2022-07-25T07:21:05.581Z,10.57
2022-07-25T07:23:32.900Z,9.48
2022-07-25T07:26:00.004Z,9.30
2022-07-25T07:28:26.705Z,8.90
2022-07-25T07:33:40.095Z,9.60
2022-07-25T07:36:07.080Z,9.85
2022-07-25T07:38:33.792Z,9.43
2022-07-25T07:41:00.344Z,9.52
2022-07-25T07:43:30.115Z,9.88
2022-07-25T07:46:02.893Z,9.95
2022-07-25T07:48:31.275Z,9.57
2022-07-25T07:50:59.354Z,9.38
2022-07-25T07:53:46.063Z,9.13
2022-07-25T07:56:13.244Z,9.50
2022-07-25T07:58:40.212Z,8.85
2022-07-25T08:01:07.488Z,8.68
2022-07-25T08:03:34.272Z,9.40
2022-07-25T08:06:00.842Z,8.93
2022-07-25T08:08:31.178Z,9.00
2022-07-25T08:10:59.276Z,9.40
2022-07-25T08:13:28.873Z,9.23
2022-07-25T08:15:59.037Z,8.52
2022-07-25T08:18:27.632Z,8.95
2022-07-25T08:20:54.587Z,9.52
2022-07-25T08:23:22.383Z,9.55
2022-07-25T08:25:49.411Z,9.52
2022-07-25T08:28:16.110Z,8.98
2022-07-25T08:30:43.446Z,10.52
2022-07-25T08:33:13.547Z,8.93
2022-07-25T08:35:42.043Z,9.32
2022-07-25T08:38:11.673Z,10.18
2022-07-25T08:40:38.557Z,9.40
2022-07-25T08:43:05.253Z,9.35
2022-07-25T08:45:33.442Z,9.00
2022-07-25T08:47:59.999Z,9.00
2022-07-25T08:50:28.982Z,9.60
2022-07-25T08:53:29.883Z,8.55
2022-07-25T08:55:46.738Z,8.80
2022-07-25T08:58:15.393Z,8.70
2022-07-25T09:00:42.726Z,8.90
2022-07-25T09:03:09.798Z,9.05
2022-07-25T09:05:37.458Z,8.23
2022-07-25T09:08:22.189Z,8.60
2022-07-25T09:10:53.037Z,8.75
2022-07-25T09:13:22.229Z,8.70
2022-07-25T09:15:54.214Z,8.70
2022-07-25T09:18:25.462Z,8.57
2022-07-25T09:20:53.911Z,8.63
2022-07-25T09:23:34.108Z,8.82
2022-07-25T09:26:10.099Z,8.80
2022-07-25T09:28:42.491Z,8.50
2022-07-25T09:31:09.903Z,7.97
2022-07-25T09:33:49.097Z,9.05
2022-07-25T09:36:16.236Z,8.60
2022-07-25T09:38:56.960Z,8.40
2022-07-25T09:41:37.005Z,8.38
2022-07-25T09:44:05.139Z,8.50
2022-07-25T09:46:32.607Z,8.20
2022-07-25T09:49:00.418Z,8.50
2022-07-25T09:51:28.010Z,8.73
2022-07-25T09:53:54.925Z,8.43
2022-07-25T09:56:21.494Z,8.43
2022-07-25T09:58:48.095Z,8.48
2022-07-25T10:01:20.687Z,8.25
2022-07-25T10:03:51.928Z,8.20
2022-07-25T10:06:28.171Z,8.45
2022-07-25T10:08:55.090Z,8.75
2022-07-25T10:11:26.979Z,8.75
2022-07-25T10:13:54.790Z,8.68
2022-07-25T10:16:24.092Z,8.65
2022-07-25T10:18:52.951Z,8.80
2022-07-25T10:21:26.676Z,7.95
2022-07-25T10:23:58.740Z,7.90
2022-07-25T10:26:25.720Z,8.10
2022-07-25T10:28:54.356Z,8.38
2022-07-25T10:31:23.079Z,8.45
2022-07-25T10:33:55.452Z,8.63
2022-07-25T10:36:23.181Z,8.52
2022-07-25T10:38:57.310Z,8.73
2022-07-25T10:41:26.405Z,7.85
2022-07-25T10:43:57.402Z,9.05
2022-07-25T10:46:27.994Z,8.23
2022-07-25T10:49:03.341Z,7.90
2022-07-25T10:51:38.312Z,8.57
2022-07-25T10:54:15.841Z,8.55
2022-07-25T10:56:59.053Z,8.43
2022-07-25T10:59:38.287Z,7.65
2022-07-25T11:02:07.373Z,7.95
2022-07-25T11:04:34.638Z,7.88
2022-07-25T11:07:16.279Z,8.00
2022-07-25T11:09:44.483Z,7.47
2022-07-25T11:12:15.372Z,7.53
2022-07-25T11:14:42.921Z,7.63
2022-07-25T11:17:39.077Z,8.10
2022-07-25T11:20:08.102Z,7.72
2022-07-25T11:22:35.771Z,8.13
2022-07-25T11:25:11.986Z,7.80
2022-07-25T11:27:38.597Z,8.60
2022-07-25T11:30:16.521Z,7.80
2022-07-25T11:32:52.122Z,8.43
2022-07-25T11:35:22.886Z,8.13
2022-07-25T11:37:50.928Z,7.80
2022-07-25T11:40:18.633Z,8.13
2022-07-25T11:42:48.756Z,8.05
2022-07-25T11:45:26.842Z,8.20
2022-07-25T11:48:13.539Z,7.82
2022-07-25T11:50:44.439Z,8.02
2022-07-25T11:53:17.195Z,7.95
2022-07-25T11:55:44.084Z,7.72
2022-07-25T11:58:13.068Z,7.70
2022-07-25T12:00:43.235Z,8.02
2022-07-25T12:03:21.063Z,7.93
2022-07-25T12:05:49.208Z,7.63
2022-07-25T12:08:18.696Z,7.85
2022-07-25T12:10:48.715Z,7.18
2022-07-25T12:13:26.338Z,7.22
2022-07-25T12:15:53.578Z,6.85
2022-07-25T12:18:20.230Z,6.60
2022-07-25T12:20:47.156Z,6.15
2022-07-25T12:23:14.614Z,6.35
2022-07-25T12:25:44.253Z,5.43
2022-07-25T12:30:39.541Z,4.82
2022-07-25T12:33:06.642Z,5.13
2022-07-25T12:35:33.556Z,5.00
2022-07-25T12:38:00.372Z,4.90
2022-07-25T12:40:27.071Z,4.97
2022-07-25T12:42:53.806Z,5.45
2022-07-25T12:45:20.366Z,6.35
2022-07-25T12:47:48.222Z,5.47
2022-07-25T12:50:16.639Z,5.10
2022-07-25T12:52:44.159Z,5.40
2022-07-25T12:55:16.927Z,5.22
2022-07-25T12:57:44.517Z,5.15
2022-07-25T13:00:15.711Z,4.90
2022-07-25T13:02:43.159Z,4.97
2022-07-25T13:05:11.002Z,5.20
2022-07-25T13:07:38.720Z,5.40
2022-07-25T13:10:07.741Z,5.90
2022-07-25T13:12:35.317Z,5.57
2022-07-25T13:15:03.000Z,5.68
2022-07-25T13:17:30.132Z,5.38
2022-07-25T13:19:56.907Z,5.68
2022-07-25T13:22:24.929Z,5.88
2022-07-25T13:24:53.151Z,5.50
2022-07-25T13:27:21.084Z,5.32
2022-07-25T13:29:47.737Z,5.47
2022-07-25T13:32:14.413Z,5.93
2022-07-25T13:34:41.083Z,5.57
2022-07-25T13:37:07.829Z,5.45
2022-07-25T13:39:35.788Z,5.07
2022-07-25T13:42:03.448Z,5.40
2022-07-25T13:44:30.085Z,5.97
2022-07-25T13:46:58.566Z,5.45
2022-07-25T13:49:25.998Z,5.50
2022-07-25T13:51:52.670Z,5.90
2022-07-25T13:54:19.318Z,5.30
2022-07-25T13:56:46.752Z,4.97
2022-07-25T13:59:20.550Z,6.03
2022-07-25T14:01:49.566Z,5.15
2022-07-25T14:04:16.745Z,5.45
2022-07-25T14:06:43.411Z,5.38
2022-07-25T14:09:10.470Z,5.50
2022-07-25T14:11:37.546Z,5.10
2022-07-25T14:14:04.191Z,5.25
2022-07-25T14:16:31.026Z,5.60
2022-07-25T14:18:57.754Z,5.75
2022-07-25T14:21:25.420Z,4.80
2022-07-25T14:23:52.484Z,5.47
2022-07-25T14:26:19.556Z,5.57
2022-07-25T14:28:46.336Z,5.60
2022-07-25T14:31:13.097Z,5.18
2022-07-25T14:33:40.708Z,5.63
2022-07-25T14:36:09.697Z,5.72
2022-07-25T14:38:36.634Z,5.88
2022-07-25T14:41:05.712Z,5.60
2022-07-25T14:43:35.677Z,5.47
2022-07-25T14:46:02.230Z,6.18
2022-07-25T14:48:28.966Z,6.00
2022-07-25T14:50:55.758Z,6.03
2022-07-25T14:53:22.368Z,6.15
2022-07-25T14:55:48.969Z,6.15
2022-07-25T14:58:15.791Z,6.03
2022-07-25T15:00:43.592Z,6.07
2022-07-25T15:03:10.222Z,5.72
2022-07-25T15:05:38.584Z,6.20
2022-07-25T15:08:06.277Z,5.90
2022-07-25T15:10:33.056Z,6.13
2022-07-25T15:13:28.239Z,5.60
2022-07-25T15:15:46.915Z,5.93
2022-07-25T15:18:14.979Z,6.30
2022-07-25T15:20:41.913Z,6.53
2022-07-25T15:23:08.572Z,6.20
2022-07-25T15:26:00.474Z,6.10
2022-07-25T15:28:21.942Z,6.28
2022-07-25T15:30:48.587Z,5.75
2022-07-25T15:33:15.493Z,6.20
2022-07-25T15:35:44.068Z,5.95
2022-07-25T15:38:10.929Z,6.18
2022-07-25T15:40:37.725Z,6.05
2022-07-25T15:43:04.489Z,5.80
2022-07-25T15:45:33.002Z,6.07
2022-07-25T15:48:01.526Z,5.93
2022-07-25T15:50:28.189Z,5.40
2022-07-25T15:52:54.873Z,5.90
2022-07-25T15:55:21.543Z,5.50
2022-07-25T15:57:48.199Z,5.40
2022-07-25T16:00:15.149Z,5.35
2022-07-25T16:02:41.713Z,5.75
2022-07-25T16:05:08.836Z,5.43
2022-07-25T16:07:35.793Z,5.85
2022-07-25T16:10:03.026Z,5.47
2022-07-25T16:12:30.043Z,6.00
2022-07-25T16:14:56.747Z,6.18
2022-07-25T16:17:25.957Z,5.35
2022-07-25T16:19:54.078Z,5.40
2022-07-25T16:22:22.012Z,5.15
2022-07-25T16:24:49.229Z,5.50
2022-07-25T16:27:16.208Z,5.20
2022-07-25T16:29:43.059Z,5.28
2022-07-25T16:32:10.879Z,5.80
2022-07-25T16:34:37.610Z,5.90
2022-07-25T16:37:05.045Z,5.30
2022-07-25T16:39:31.992Z,5.60
2022-07-25T16:41:58.808Z,5.72
2022-07-25T16:44:25.552Z,5.75
2022-07-25T16:46:53.100Z,5.50
2022-07-25T16:49:19.926Z,5.78
2022-07-25T16:51:46.782Z,6.20
2022-07-25T16:54:13.839Z,5.97
2022-07-25T16:56:40.929Z,6.18
2022-07-25T16:59:08.872Z,5.97
2022-07-25T17:01:35.817Z,6.30
2022-07-25T17:04:03.333Z,6.43
2022-07-25T17:06:30.235Z,6.60
2022-07-25T17:08:56.947Z,6.35
2022-07-25T17:11:23.619Z,6.30
2022-07-25T17:13:50.559Z,6.60
2022-07-25T17:16:17.496Z,6.50
2022-07-25T17:18:44.222Z,6.10
2022-07-25T17:21:10.996Z,6.70
2022-07-25T17:23:38.101Z,6.05
2022-07-25T17:26:05.490Z,6.30
2022-07-25T17:28:32.525Z,5.72
2022-07-25T17:30:59.386Z,6.00
2022-07-25T17:33:26.675Z,5.72
2022-07-25T17:35:53.549Z,5.88
2022-07-25T17:38:25.425Z,5.55
2022-07-25T17:40:53.109Z,5.20
2022-07-25T17:43:19.788Z,4.60
2022-07-25T17:45:46.453Z,4.47
2022-07-25T17:48:13.051Z,4.50
2022-07-25T17:50:39.692Z,4.57
2022-07-25T17:53:06.519Z,4.22
2022-07-25T17:55:38.175Z,4.50
2022-07-25T17:58:05.546Z,3.83
2022-07-25T18:00:32.486Z,3.78
2022-07-25T18:02:59.228Z,4.35
2022-07-25T18:05:26.044Z,3.35
2022-07-25T18:07:53.684Z,4.00
2022-07-25T18:10:21.885Z,3.67
2022-07-25T18:12:49.452Z,3.17
2022-07-25T18:15:16.324Z,3.30
2022-07-25T18:17:44.853Z,3.25
2022-07-25T18:20:13.124Z,2.85
2022-07-25T18:22:41.233Z,2.72
2022-07-25T18:25:11.057Z,2.75
2022-07-25T18:27:40.756Z,3.08
2022-07-25T18:30:08.155Z,2.60
2022-07-25T18:32:35.653Z,2.70
2022-07-25T18:35:02.304Z,2.67
2022-07-25T18:37:29.084Z,2.40
2022-07-25T18:39:55.697Z,2.92
2022-07-25T18:42:26.316Z,2.58
2022-07-25T18:44:56.515Z,2.45
2022-07-25T18:47:25.595Z,2.65
2022-07-25T18:49:55.002Z,2.50
2022-07-25T18:52:22.107Z,2.80
2022-07-25T18:54:49.129Z,2.53
2022-07-25T18:57:16.136Z,3.05
2022-07-25T18:59:43.377Z,3.88
2022-07-25T19:02:10.605Z,2.70
2022-07-25T19:04:37.805Z,3.10
2022-07-25T19:07:05.102Z,2.50
2022-07-25T19:09:32.280Z,2.92
2022-07-25T19:12:01.691Z,2.70
2022-07-25T19:14:30.941Z,2.50
2022-07-25T19:16:59.446Z,2.67
2022-07-25T19:19:27.030Z,2.63
2022-07-25T19:21:54.032Z,2.85
2022-07-25T19:24:21.161Z,3.30
2022-07-25T19:26:49.064Z,2.65
2022-07-25T19:29:16.644Z,2.70
2022-07-25T19:31:43.585Z,2.50
2022-07-25T19:34:10.869Z,2.75
2022-07-25T19:36:37.939Z,2.50
2022-07-25T19:39:06.128Z,2.42
2022-07-25T19:41:33.005Z,2.63
2022-07-25T19:43:59.598Z,2.88
2022-07-25T19:46:30.438Z,2.50
2022-07-25T19:48:57.043Z,2.60
2022-07-25T19:51:23.679Z,2.85
2022-07-25T19:53:50.266Z,2.63
2022-07-25T19:56:16.917Z,2.20
2022-07-25T19:58:45.087Z,2.50
2022-07-25T20:01:12.930Z,2.53
2022-07-25T20:03:40.314Z,2.80
2022-07-25T20:06:08.465Z,2.72
2022-07-25T20:08:36.661Z,2.55
2022-07-25T20:11:03.649Z,2.47
2022-07-25T20:13:30.333Z,2.50
2022-07-25T20:15:57.364Z,2.30
2022-07-25T20:18:24.201Z,2.28
2022-07-25T20:20:51.086Z,2.80
2022-07-25T20:23:17.895Z,2.40
2022-07-25T20:25:44.553Z,2.70
2022-07-25T20:28:11.455Z,2.33
2022-07-25T20:30:38.520Z,2.58
2022-07-25T20:33:09.345Z,2.80
2022-07-25T20:35:37.994Z,2.50
2022-07-25T20:38:10.035Z,2.60
2022-07-25T20:40:48.019Z,2.80
2022-07-25T20:43:16.177Z,2.67
2022-07-25T20:45:43.217Z,2.67
2022-07-25T20:48:09.849Z,2.92
2022-07-25T20:50:37.752Z,2.20
2022-07-25T20:53:08.220Z,2.53
2022-07-25T20:55:35.906Z,2.35
2022-07-25T20:58:03.809Z,2.65
2022-07-25T21:00:31.026Z,2.67
2022-07-25T21:02:58.664Z,2.30
2022-07-25T21:05:26.243Z,2.40
2022-07-25T21:07:53.073Z,2.53
2022-07-25T21:10:19.825Z,2.30
2022-07-25T21:12:46.505Z,2.90
2022-07-25T21:15:13.249Z,2.72
2022-07-25T21:17:40.254Z,2.50
2022-07-25T21:20:09.201Z,2.80
2022-07-25T21:22:36.008Z,2.63
2022-07-25T21:25:03.394Z,2.50
2022-07-25T21:27:30.393Z,2.38
2022-07-25T21:29:57.072Z,2.35
2022-07-25T21:32:23.757Z,2.00
2022-07-25T21:34:51.884Z,2.55
2022-07-25T21:37:18.671Z,2.45
2022-07-25T21:39:45.926Z,2.15
2022-07-25T21:42:12.829Z,2.70
2022-07-25T21:44:40.755Z,2.83
2022-07-25T21:47:08.285Z,2.65
2022-07-25T21:50:10.532Z,2.60
2022-07-25T21:52:39.851Z,2.40
2022-07-25T21:55:06.633Z,2.53
2022-07-25T21:57:33.226Z,2.30
2022-07-25T21:59:59.834Z,2.67
2022-07-25T22:02:26.594Z,2.88
2022-07-25T22:04:53.298Z,2.40
2022-07-25T22:07:19.989Z,2.30
2022-07-25T22:09:46.634Z,2.55
2022-07-25T22:12:14.780Z,2.55
2022-07-25T22:14:41.461Z,2.60
2022-07-25T22:17:08.431Z,2.90
2022-07-25T22:19:35.156Z,2.40
2022-07-25T22:22:01.855Z,2.70
2022-07-25T22:24:28.373Z,2.30
2022-07-25T22:26:55.941Z,2.58
2022-07-25T22:29:22.572Z,2.90
2022-07-25T22:31:49.178Z,2.72
2022-07-25T22:34:16.047Z,2.30
2022-07-25T22:36:42.974Z,2.38
2022-07-25T22:39:11.085Z,2.30
2022-07-25T22:41:38.091Z,2.72
2022-07-25T22:44:05.037Z,2.47
2022-07-25T22:46:31.841Z,2.80
2022-07-25T22:48:59.245Z,2.60
2022-07-25T22:51:26.750Z,2.42
2022-07-25T22:53:53.723Z,2.65
2022-07-25T22:56:20.999Z,2.50
2022-07-25T22:58:49.039Z,2.63
2022-07-25T23:01:16.087Z,2.50
2022-07-25T23:03:42.739Z,2.55
2022-07-25T23:06:09.638Z,2.30
2022-07-25T23:08:36.276Z,2.33
2022-07-25T23:11:03.702Z,2.10
2022-07-25T23:13:30.638Z,2.13
2022-07-25T23:15:57.326Z,2.50
2022-07-25T23:18:24.047Z,2.20
2022-07-25T23:20:50.624Z,2.58
2022-07-25T23:23:17.393Z,2.40
2022-07-25T23:25:44.094Z,2.60
2022-07-25T23:28:10.817Z,2.33
2022-07-25T23:30:40.414Z,2.33
2022-07-25T23:33:09.579Z,2.95
2022-07-25T23:35:37.198Z,2.63
2022-07-25T23:38:03.975Z,2.70
2022-07-25T23:40:30.705Z,2.47
2022-07-25T23:42:57.425Z,2.50
2022-07-25T23:45:25.009Z,2.20
2022-07-25T23:47:55.085Z,2.60
2022-07-25T23:50:22.610Z,2.38
2022-07-25T23:52:49.354Z,2.50
2022-07-25T23:55:16.013Z,2.13
2022-07-25T23:57:43.206Z,2.70
